Time;durP1;ratioP1;P1;durP2;ratioP2;P2;SDS_P1;SDS_P2;PMS_P1;PMS_P2;Temp;Humidity;BMP_temperature;BMP_pressure;BME280_temperature;BME280_humidity;BME280_pressure;Samples;Min_cycle;Max_cycle;Signal;HPM_P1;HPM_P2
2022/02/08 00:00:50;;;;;;;21.20;4.70;;;;;;;3.67;100.00;99201.38;4999887;28;20057;-59
2022/02/08 00:03:20;;;;;;;16.73;4.30;;;;;;;3.50;100.00;99202.16;5005173;28;20120;-59
2022/02/08 00:06:04;;;;;;;20.20;4.30;;;;;;;2.98;100.00;99212.91;5003873;28;20125;-59
2022/02/08 00:08:29;;;;;;;20.35;4.55;;;;;;;3.32;100.00;99213.19;5002944;28;20073;-58
2022/02/08 00:10:55;;;;;;;19.02;4.05;;;;;;;3.50;100.00;99207.31;5001770;28;20056;-59
2022/02/08 00:13:20;;;;;;;15.85;4.03;;;;;;;3.43;100.00;99207.25;5003667;28;20029;-60
2022/02/08 00:15:46;;;;;;;17.38;4.38;;;;;;;3.28;100.00;99215.75;5003678;28;20822;-57
2022/02/08 00:18:11;;;;;;;20.83;4.20;;;;;;;3.17;100.00;99217.38;5002965;28;20079;-58
2022/02/08 00:20:36;;;;;;;22.10;4.10;;;;;;;3.24;100.00;99216.59;5001912;28;20071;-59
2022/02/08 00:23:02;;;;;;;21.02;4.43;;;;;;;3.30;100.00;99209.75;5003293;28;20041;-58
2022/02/08 00:25:27;;;;;;;20.13;4.47;;;;;;;3.49;100.00;99216.75;5005637;28;20764;-59
2022/02/08 00:27:53;;;;;;;18.60;4.68;;;;;;;3.22;100.00;99212.28;5007007;28;20048;-58
2022/02/08 00:30:18;;;;;;;21.77;4.50;;;;;;;3.07;100.00;99218.19;5004951;28;20231;-58
2022/02/08 00:32:43;;;;;;;19.00;4.55;;;;;;;3.12;100.00;99218.19;5007971;28;20467;-59
2022/02/08 00:35:09;;;;;;;21.58;4.68;;;;;;;3.21;100.00;99220.84;5004395;28;20545;-59
2022/02/08 00:37:34;;;;;;;19.30;4.25;;;;;;;3.10;100.00;99223.34;5008325;28;20051;-60
2022/02/08 00:39:59;;;;;;;22.85;4.35;;;;;;;2.97;100.00;99224.09;5008365;28;20427;-60
2022/02/08 00:42:25;;;;;;;20.33;4.40;;;;;;;3.06;100.00;99221.59;5007580;28;20866;-59
2022/02/08 00:45:04;;;;;;;22.70;4.68;;;;;;;2.83;100.00;99209.38;5008498;28;20114;-58
2022/02/08 00:47:34;;;;;;;20.95;4.68;;;;;;;2.76;100.00;99211.84;5008174;28;20060;-59
2022/02/08 00:50:08;;;;;;;19.10;3.95;;;;;;;2.91;100.00;99218.88;5006735;28;20109;-58
2022/02/08 00:52:35;;;;;;;19.65;4.15;;;;;;;2.75;100.00;99217.88;5006353;28;20049;-59
2022/02/08 00:55:02;;;;;;;17.38;4.07;;;;;;;2.75;100.00;99223.88;5008614;28;20163;-58
2022/02/08 00:57:27;;;;;;;22.67;4.60;;;;;;;2.41;100.00;99228.66;5007614;28;20064;-57
2022/02/08 00:59:53;;;;;;;22.63;4.70;;;;;;;2.74;100.00;99229.00;5007541;28;20677;-60
2022/02/08 01:02:19;;;;;;;18.88;3.90;;;;;;;2.58;100.00;99222.84;5007568;28;20049;-60
2022/02/08 01:04:52;;;;;;;18.70;4.43;;;;;;;2.85;100.00;99233.44;5007342;28;20408;-56
2022/02/08 01:07:17;;;;;;;19.75;4.30;;;;;;;2.71;100.00;99235.00;5006986;28;20092;-59
2022/02/08 01:12:09;;;;;;;15.40;4.05;;;;;;;2.88;100.00;99230.88;5006132;28;20107;-59
2022/02/08 01:14:39;;;;;;;22.13;4.65;;;;;;;3.08;100.00;99219.88;5009226;28;20021;-58
2022/02/08 01:17:06;;;;;;;24.17;4.88;;;;;;;3.51;100.00;99222.81;5007213;28;20098;-59
2022/02/08 01:19:31;;;;;;;18.27;3.88;;;;;;;2.75;100.00;99225.59;5007853;28;20537;-58
2022/02/08 01:21:57;;;;;;;21.75;4.32;;;;;;;3.26;100.00;99225.19;5007192;28;20041;-59
2022/02/08 01:24:22;;;;;;;17.83;3.83;;;;;;;3.13;100.00;99228.53;5008654;28;20638;-58
2022/02/08 01:26:55;;;;;;;17.98;4.18;;;;;;;2.69;100.00;99226.41;5006595;28;20443;-58
2022/02/08 01:29:35;;;;;;;22.70;4.82;;;;;;;2.89;100.00;99235.19;5007081;28;20021;-60
2022/02/08 01:32:14;;;;;;;18.45;4.45;;;;;;;2.76;100.00;99228.19;5005532;28;20045;-59
2022/02/08 01:37:45;;;;;;;18.55;4.07;;;;;;;3.40;100.00;99229.59;5004901;28;20045;-60
2022/02/08 01:40:24;;;;;;;19.83;4.30;;;;;;;3.48;100.00;99225.38;5007139;28;20030;-59
2022/02/08 01:50:31;;;;;;;20.00;3.92;;;;;;;3.34;100.00;99221.81;5005692;28;20042;-58
2022/02/08 01:52:57;;;;;;;18.60;4.18;;;;;;;3.79;100.00;99207.50;5007354;28;20064;-60
2022/02/08 01:55:23;;;;;;;16.52;3.90;;;;;;;3.53;100.00;99218.53;5005118;28;20762;-58
2022/02/08 01:57:49;;;;;;;15.50;3.72;;;;;;;4.10;100.00;99220.56;5006412;28;20020;-59
2022/02/08 02:00:17;;;;;;;19.60;4.20;;;;;;;3.88;100.00;99215.31;5007969;28;20481;-59
2022/02/08 02:02:42;;;;;;;16.88;4.03;;;;;;;3.73;100.00;99210.91;5007166;28;20515;-59
2022/02/08 02:05:08;;;;;;;22.45;4.68;;;;;;;3.72;100.00;99218.66;5004805;28;20092;-59
2022/02/08 02:07:34;;;;;;;22.60;4.57;;;;;;;3.60;100.00;99202.25;5006276;28;20128;-58
2022/02/08 02:10:01;;;;;;;22.73;4.35;;;;;;;3.62;100.00;99197.94;5005999;28;20032;-58
2022/02/08 02:12:26;;;;;;;19.63;4.00;;;;;;;4.08;100.00;99193.88;5006159;28;20186;-58
2022/02/08 02:14:52;;;;;;;18.73;4.07;;;;;;;3.78;100.00;99198.03;5006033;28;20104;-59
2022/02/08 02:17:18;;;;;;;19.42;4.15;;;;;;;3.84;100.00;99198.03;5004281;28;20030;-59
2022/02/08 02:19:44;;;;;;;18.17;4.18;;;;;;;3.67;100.00;99193.66;5006381;28;20150;-57
2022/02/08 02:22:10;;;;;;;20.52;3.85;;;;;;;3.52;100.00;99200.44;5004244;28;20037;-59
2022/02/08 02:24:38;;;;;;;18.55;3.80;;;;;;;3.65;100.00;99197.94;5005666;28;20018;-59
2022/02/08 02:27:04;;;;;;;15.73;3.70;;;;;;;3.74;100.00;99191.13;5004030;28;20042;-59
2022/02/08 02:29:30;;;;;;;19.40;4.25;;;;;;;3.40;100.00;99196.06;5007354;28;20021;-59
2022/02/08 02:31:57;;;;;;;16.58;4.30;;;;;;;3.77;100.00;99201.47;5006110;28;20406;-60
2022/02/08 02:34:23;;;;;;;20.35;4.15;;;;;;;3.82;100.00;99204.91;5008393;28;20025;-59
2022/02/08 02:36:49;;;;;;;22.15;4.30;;;;;;;4.01;100.00;99211.91;5004002;28;20036;-58
2022/02/08 02:39:21;;;;;;;21.38;4.55;;;;;;;4.02;100.00;99208.47;5005230;28;20029;-58
2022/02/08 02:41:46;;;;;;;15.65;4.30;;;;;;;4.10;100.00;99195.59;5005310;28;20045;-59
2022/02/08 02:44:19;;;;;;;18.55;4.20;;;;;;;4.30;100.00;99193.09;5006285;28;20026;-59
2022/02/08 02:46:44;;;;;;;;;;;;;;;4.36;100.00;99203.44;5002703;28;20045;-59
2022/02/08 02:49:10;;;;;;;17.00;3.70;;;;;;;3.75;100.00;99196.31;5003240;28;19920;-58
2022/02/08 02:51:36;;;;;;;18.15;3.80;;;;;;;3.87;100.00;99208.41;5003432;28;20407;-58
2022/02/08 02:54:01;;;;;;;18.85;4.18;;;;;;;4.04;100.00;99205.88;5007014;28;20048;-59
2022/02/08 02:56:27;;;;;;;18.00;3.83;;;;;;;4.10;100.00;99210.22;5003038;28;20578;-58
2022/02/08 02:59:02;;;;;;;21.95;4.15;;;;;;;3.92;100.00;99206.72;5008509;28;20133;-58
2022/02/08 03:01:35;;;;;;;19.42;3.78;;;;;;;4.00;100.00;99211.91;5005176;28;20034;-59
2022/02/08 03:04:21;;;;;;;;;;;;;;;;;;;;;
2022/02/08 03:20:25;;;;;;;15.90;3.92;;;;;;;4.32;100.00;99208.59;5004178;28;20139;-59
2022/02/08 03:22:51;;;;;;;17.75;3.97;;;;;;;3.70;100.00;99213.47;5007161;28;20402;-60
2022/02/08 03:25:16;;;;;;;15.13;3.95;;;;;;;4.16;100.00;99210.25;5005697;28;20930;-60
2022/02/08 03:27:42;;;;;;;13.50;3.53;;;;;;;3.92;100.00;99198.09;5005874;28;20787;-61
2022/02/08 03:30:08;;;;;;;16.65;4.00;;;;;;;4.16;100.00;99205.09;5003605;28;20025;-58
2022/02/08 03:32:33;;;;;;;15.90;3.85;;;;;;;3.90;100.00;99203.25;5006038;28;20024;-59
2022/02/08 03:34:59;;;;;;;19.17;4.15;;;;;;;3.80;100.00;99206.63;5003130;28;20033;-61
2022/02/08 03:37:27;;;;;;;14.30;3.65;;;;;;;3.97;100.00;99211.88;5004046;28;20117;-60
2022/02/08 03:40:01;;;;;;;19.05;4.15;;;;;;;4.03;100.00;99211.94;5004567;28;20026;-61
2022/02/08 03:42:35;;;;;;;18.83;4.22;;;;;;;3.99;100.00;99216.22;5005566;28;20036;-60
2022/02/08 03:45:03;;;;;;;14.45;3.53;;;;;;;3.87;100.00;99205.81;5002903;28;20032;-59
2022/02/08 03:47:28;;;;;;;17.17;3.85;;;;;;;3.60;100.00;99209.97;5004858;28;20038;-58
2022/02/08 03:49:53;;;;;;;19.13;3.90;;;;;;;3.60;100.00;99214.25;5003553;28;20049;-58
2022/02/08 03:52:23;;;;;;;20.73;4.50;;;;;;;4.18;100.00;99218.88;5005472;28;20079;-60
2022/02/08 03:54:48;;;;;;;16.88;3.92;;;;;;;3.89;100.00;99217.00;5003386;28;20022;-58
2022/02/08 03:57:13;;;;;;;22.13;4.78;;;;;;;3.91;100.00;99215.28;5004177;28;20034;-59
2022/02/08 03:59:39;;;;;;;17.38;3.90;;;;;;;3.88;100.00;99219.56;5003563;28;20521;-59
2022/02/08 04:02:27;;;;;;;21.40;4.25;;;;;;;4.03;100.00;99219.69;5002131;28;20104;-58
2022/02/08 04:07:34;;;;;;;16.15;3.83;;;;;;;4.32;100.00;99230.13;5001772;28;20542;-57
2022/02/08 04:10:03;;;;;;;18.90;3.83;;;;;;;4.17;100.00;99222.31;5005719;28;20057;-58
2022/02/08 04:15:32;;;;;;;20.60;4.53;;;;;;;4.35;100.00;99229.28;5005375;28;20579;-60
2022/02/08 04:43:21;;;;;;;12.82;3.25;;;;;;;4.87;100.00;99244.06;5002488;28;20033;-59
2022/02/08 04:45:38;;;;;;;22.40;4.13;;;;;;;4.79;100.00;99244.91;4995799;28;20107;-58
2022/02/08 04:48:45;;;;;;;16.83;3.35;;;;;;;5.12;100.00;99243.22;5004900;28;20026;-59
2022/02/08 04:51:09;;;;;;;15.18;3.65;;;;;;;4.68;100.00;99236.25;4999112;28;20119;-60
2022/02/08 04:53:41;;;;;;;16.40;3.65;;;;;;;5.09;100.00;99234.59;5003059;28;20025;-60
2022/02/08 04:56:23;;;;;;;18.52;3.80;;;;;;;4.74;100.00;99223.38;5002679;28;20095;-59
2022/02/08 04:58:59;;;;;;;17.02;3.63;;;;;;;5.81;100.00;99229.41;5002640;28;20534;-61
2022/02/08 05:01:36;;;;;;;22.05;3.95;;;;;;;5.03;100.00;99223.38;5003066;28;20041;-58
2022/02/08 05:34:28;;;;;;;18.08;3.55;;;;;;;6.05;100.00;99222.47;5007869;28;20136;-59
2022/02/08 05:44:53;;;;;;;29.77;5.40;;;;;;;6.17;100.00;99212.06;5005657;28;20518;-60
2022/02/08 05:47:18;;;;;;;18.20;3.60;;;;;;;5.15;100.00;99207.03;5005162;28;20065;-59
2022/02/08 05:49:51;;;;;;;19.27;3.85;;;;;;;5.91;100.00;99205.19;5007191;28;20117;-60
2022/02/08 05:52:45;;;;;;;14.52;3.80;;;;;;;5.53;100.00;99213.94;5005841;28;20086;-61
2022/02/08 05:55:08;;;;;;;20.60;4.07;;;;;;;5.02;100.00;99210.47;5006524;28;20095;-59
2022/02/08 05:57:33;;;;;;;22.60;4.43;;;;;;;4.97;100.00;99212.19;5007762;28;20017;-60
2022/02/08 05:59:59;;;;;;;13.52;3.63;;;;;;;4.77;100.00;99205.25;5009243;28;20036;-59
2022/02/08 06:02:24;;;;;;;15.68;3.72;;;;;;;4.80;100.00;99210.44;5005620;28;20037;-60
2022/02/08 06:04:50;;;;;;;16.10;3.88;;;;;;;4.73;100.00;99206.13;5008513;28;20446;-59
2022/02/08 06:07:20;;;;;;;13.15;3.70;;;;;;;4.57;100.00;99207.81;5007804;28;20038;-59
2022/02/08 06:09:48;;;;;;;17.17;3.70;;;;;;;5.02;100.00;99213.06;5010370;28;20080;-59
2022/02/08 06:12:13;;;;;;;14.60;3.17;;;;;;;4.80;100.00;99220.78;5011397;28;20037;-61
2022/02/08 06:14:41;;;;;;;16.45;3.40;;;;;;;4.76;100.00;99223.34;5009993;28;20137;-59
2022/02/08 06:17:07;;;;;;;20.42;5.05;;;;;;;4.82;100.00;99219.06;5009169;28;20518;-59
2022/02/08 06:19:32;;;;;;;14.73;3.35;;;;;;;4.73;100.00;99219.06;5009824;28;20531;-59
2022/02/08 06:21:57;;;;;;;15.30;3.60;;;;;;;4.83;100.00;99225.09;5008398;28;20663;-60
2022/02/08 06:24:23;;;;;;;13.27;3.33;;;;;;;5.29;100.00;99221.69;5008629;28;20071;-60
2022/02/08 06:26:48;;;;;;;15.65;3.42;;;;;;;4.68;100.00;99225.94;5007423;28;20615;-59
2022/02/08 06:29:22;;;;;;;15.40;3.95;;;;;;;4.63;100.00;99219.88;5009403;28;20025;-59
2022/02/08 06:31:47;;;;;;;13.15;3.35;;;;;;;4.66;100.00;99217.31;5009360;28;20396;-60
2022/02/08 06:34:17;;;;;;;20.25;3.67;;;;;;;4.41;100.00;99222.41;5007824;28;20542;-59
2022/02/08 06:36:43;;;;;;;14.43;3.42;;;;;;;4.60;100.00;99220.75;5007065;28;20124;-59
2022/02/08 06:39:08;;;;;;;15.02;3.28;;;;;;;5.00;100.00;99217.38;5007841;28;20113;-60
2022/02/08 06:41:34;;;;;;;14.00;3.40;;;;;;;4.44;100.00;99226.72;5008213;28;20064;-60
2022/02/08 06:44:01;;;;;;;12.15;3.47;;;;;;;4.42;100.00;99231.88;5008490;28;20025;-60
2022/02/08 06:46:28;;;;;;;16.58;3.33;;;;;;;4.27;100.00;99238.72;5009833;28;20038;-59
2022/02/08 06:48:54;;;;;;;15.43;3.53;;;;;;;4.23;100.00;99243.00;5010330;28;20088;-60
2022/02/08 06:51:19;;;;;;;15.65;3.83;;;;;;;4.03;100.00;99233.44;5010739;28;20594;-60
2022/02/08 06:53:44;;;;;;;19.95;4.13;;;;;;;4.32;100.00;99240.47;5008958;28;20135;-61
2022/02/08 06:56:10;;;;;;;15.65;4.10;;;;;;;3.79;100.00;99234.16;5007337;28;20120;-59
2022/02/08 06:58:50;;;;;;;13.45;3.38;;;;;;;4.25;100.00;99236.13;5006842;28;20843;-59
2022/02/08 07:01:18;;;;;;;22.52;5.95;;;;;;;5.63;100.00;99244.97;5006943;28;20123;-59
2022/02/08 07:03:47;;;;;;;23.73;6.32;;;;;;;6.44;100.00;99247.38;5010181;28;20692;-60
2022/02/08 07:06:13;;;;;;;16.92;4.03;;;;;;;5.53;100.00;99229.47;5008135;28;20116;-60
2022/02/08 07:08:39;;;;;;;14.82;3.90;;;;;;;6.73;100.00;99230.81;5010198;28;20435;-61
2022/02/08 07:11:10;;;;;;;15.32;3.60;;;;;;;7.31;100.00;99226.94;5006589;28;20510;-61
2022/02/08 07:13:38;;;;;;;15.05;3.63;;;;;;;8.04;100.00;99229.72;5006259;28;20038;-60
2022/02/08 07:16:03;;;;;;;11.18;3.22;;;;;;;7.19;100.00;99233.09;5007725;28;20201;-61
2022/02/08 07:18:28;;;;;;;15.93;3.88;;;;;;;5.72;100.00;99226.84;5007544;28;20123;-60
2022/02/08 07:20:54;;;;;;;17.42;3.85;;;;;;;5.16;100.00;99229.44;5007325;28;20044;-59
2022/02/08 07:23:19;;;;;;;18.92;4.28;;;;;;;4.95;100.00;99229.44;5009002;28;20119;-61
2022/02/08 07:25:44;;;;;;;17.65;4.35;;;;;;;4.69;100.00;99238.00;5007292;28;20041;-58
2022/02/08 07:28:10;;;;;;;20.02;4.45;;;;;;;4.88;100.00;99244.06;5008226;28;20120;-59
2022/02/08 07:30:37;;;;;;;18.17;4.55;;;;;;;4.49;100.00;99240.53;5008157;28;20431;-59
2022/02/08 07:33:03;;;;;;;20.13;4.22;;;;;;;4.58;100.00;99244.88;5009382;28;20030;-59
2022/02/08 07:35:48;;;;;;;16.58;4.07;;;;;;;4.68;100.00;99240.56;5006414;28;20056;-59
2022/02/08 07:38:28;;;;;;;18.83;4.13;;;;;;;4.55;100.00;99244.84;5008253;28;20060;-59
2022/02/08 07:43:20;;;;;;;22.30;4.32;;;;;;;4.60;100.00;99243.16;5008636;28;20029;-60
2022/02/08 07:45:46;;;;;;;20.48;4.07;;;;;;;4.61;100.00;99242.28;5006597;28;20037;-59
2022/02/08 07:48:11;;;;;;;16.42;3.95;;;;;;;4.79;100.00;99239.72;5006223;28;20025;-58
2022/02/08 07:50:39;;;;;;;19.27;4.43;;;;;;;5.03;100.00;99238.06;5006362;28;20037;-59
2022/02/08 07:53:08;;;;;;;16.48;4.25;;;;;;;4.79;100.00;99229.38;5006650;28;20041;-58
2022/02/08 07:55:34;;;;;;;18.38;3.90;;;;;;;4.21;100.00;99232.66;5004506;28;20061;-60
2022/02/08 07:57:59;;;;;;;18.60;4.70;;;;;;;4.30;100.00;99229.28;5007657;28;20026;-58
2022/02/08 08:00:25;;;;;;;18.60;4.40;;;;;;;4.90;100.00;99225.97;5007199;28;20034;-59
2022/02/08 08:02:52;;;;;;;23.00;4.43;;;;;;;4.79;100.00;99237.16;5009024;28;20029;-60
2022/02/08 08:05:18;;;;;;;21.67;4.88;;;;;;;4.98;100.00;99224.25;5005993;28;20026;-58
2022/02/08 08:07:43;;;;;;;17.23;4.05;;;;;;;5.05;100.00;99231.16;5009486;28;20033;-59
2022/02/08 08:10:11;;;;;;;20.20;4.30;;;;;;;5.00;100.00;99232.91;5007417;28;20060;-60
2022/02/08 08:12:37;;;;;;;19.60;3.88;;;;;;;4.87;100.00;99236.31;5008617;28;20032;-59
2022/02/08 08:15:13;;;;;;;15.75;4.00;;;;;;;5.17;100.00;99236.34;5007422;28;20036;-60
2022/02/08 08:17:56;;;;;;;20.73;3.92;;;;;;;5.28;100.00;99238.94;5006538;28;20072;-57
2022/02/08 08:20:21;;;;;;;13.40;4.18;;;;;;;5.18;100.00;99242.38;5010865;28;20014;-58
2022/02/08 08:22:47;;;;;;;13.93;3.72;;;;;;;4.68;100.00;99233.69;5008465;28;20033;-58
2022/02/08 08:25:12;;;;;;;20.65;4.55;;;;;;;4.96;100.00;99232.03;5005453;28;20033;-61
2022/02/08 08:27:38;;;;;;;15.18;3.92;;;;;;;5.45;100.00;99244.09;5008364;28;20040;-58
2022/02/08 08:30:04;;;;;;;16.23;3.85;;;;;;;5.60;100.00;99238.91;5005805;28;20025;-58
2022/02/08 08:32:29;;;;;;;17.95;4.28;;;;;;;5.13;100.00;99223.44;5006934;28;20889;-59
2022/02/08 08:34:54;;;;;;;26.45;4.68;;;;;;;5.37;100.00;99227.75;5007804;28;20460;-60
2022/02/08 08:37:20;;;;;;;18.58;4.03;;;;;;;5.36;100.00;99223.41;5007106;28;20125;-59
2022/02/08 08:39:49;;;;;;;14.00;3.75;;;;;;;5.48;100.00;99227.75;5018624;28;20026;-58
2022/02/08 08:50:06;;;;;;;17.25;4.28;;;;;;;5.48;100.00;99220.81;5010700;28;20617;-59
2022/02/08 08:52:51;;;;;;;12.45;3.53;;;;;;;5.68;100.00;99227.69;5010648;28;20514;-58
2022/02/08 08:55:16;;;;;;;19.88;3.92;;;;;;;5.45;100.00;99231.16;5008769;28;20060;-60
2022/02/08 08:57:42;;;;;;;17.38;4.18;;;;;;;5.67;100.00;99236.34;5012173;28;20026;-59
2022/02/08 09:00:10;;;;;;;19.35;3.80;;;;;;;5.71;100.00;99238.03;5012608;28;20029;-60
2022/02/08 09:02:36;;;;;;;16.85;3.95;;;;;;;5.82;100.00;99241.47;5011812;28;20034;-58
2022/02/08 09:05:04;;;;;;;13.80;3.92;;;;;;;5.62;100.00;99243.22;5012233;28;20022;-59
2022/02/08 09:07:31;;;;;;;18.50;4.00;;;;;;;5.58;100.00;99242.38;5011087;28;20077;-58
2022/02/08 09:10:00;;;;;;;16.40;3.83;;;;;;;5.86;100.00;99253.53;5010963;28;20062;-60
2022/02/08 09:12:38;;;;;;;15.10;3.90;;;;;;;6.78;100.00;99243.72;5012081;28;20065;-60
2022/02/08 09:21:01;;;;;;;17.75;4.00;;;;;;;6.11;100.00;99232.81;5012465;28;20576;-61
2022/02/08 09:25:56;;;;;;;11.23;3.67;;;;;;;7.60;100.00;99239.66;5011177;28;20057;-59
2022/02/08 09:31:02;;;;;;;13.02;3.55;;;;;;;8.08;100.00;99236.59;5009599;28;20037;-60
2022/02/08 09:33:28;;;;;;;12.00;3.63;;;;;;;7.67;100.00;99243.06;5012341;28;20054;-60
2022/02/08 09:35:55;;;;;;;10.90;3.20;;;;;;;7.95;100.00;99237.59;5008679;28;20048;-61
2022/02/08 09:38:20;;;;;;;11.00;3.45;;;;;;;8.16;100.00;99233.91;5010640;28;20061;-60
2022/02/08 09:40:47;;;;;;;13.15;3.20;;;;;;;7.67;100.00;99230.09;5010224;28;20065;-60
2022/02/08 09:43:14;;;;;;;10.73;3.17;;;;;;;7.11;100.00;99230.56;5009955;28;20116;-60
2022/02/08 09:45:47;;;;;;;9.25;2.90;;;;;;;8.12;100.00;99238.28;5009079;28;20096;-61
2022/02/08 09:48:21;;;;;;;10.43;2.83;;;;;;;7.72;100.00;99225.72;5011600;28;20053;-61
2022/02/08 09:50:49;;;;;;;12.45;3.17;;;;;;;9.52;100.00;99244.19;5010815;28;20047;-60
2022/02/08 09:53:20;;;;;;;10.77;3.22;;;;;;;8.86;100.00;99232.19;5010318;28;20093;-60
2022/02/08 09:55:45;;;;;;;11.98;3.03;;;;;;;8.64;100.00;99229.03;5012090;28;20038;-59
2022/02/08 09:58:12;;;;;;;9.35;2.80;;;;;;;8.82;100.00;99235.69;5009352;28;20022;-60
2022/02/08 10:00:39;;;;;;;11.43;3.40;;;;;;;8.18;100.00;99237.34;5009512;28;20423;-60
2022/02/08 10:03:10;;;;;;;10.98;3.45;;;;;;;7.93;100.00;99231.56;5010150;28;20030;-60
2022/02/08 10:05:45;;;;;;;8.95;3.30;;;;;;;6.74;100.00;99246.34;5008067;28;20061;-61
2022/02/08 10:08:12;;;;;;;11.63;3.28;;;;;;;9.89;100.00;99242.63;5008569;28;20080;-60
2022/02/08 10:10:38;;;;;;;9.63;2.90;;;;;;;9.43;100.00;99234.75;5009477;28;20041;-60
2022/02/08 10:24:06;;;;;;;11.27;3.03;;;;;;;8.94;100.00;99225.13;5009952;28;20438;-60
2022/02/08 10:29:26;;;;;;;9.13;3.30;;;;;;;7.89;100.00;99220.34;5010184;28;20034;-59
2022/02/08 10:32:15;;;;;;;13.27;2.97;;;;;;;8.89;100.00;99221.72;5006706;28;20041;-59
2022/02/08 10:38:07;;;;;;;12.30;3.22;;;;;;;8.09;100.00;99231.38;5011980;28;20095;-59
2022/02/08 10:40:37;;;;;;;14.52;3.75;;;;;;;7.63;100.00;99229.25;5008775;28;20783;-61
2022/02/08 10:43:07;;;;;;;13.10;3.60;;;;;;;8.56;100.00;99234.28;5007909;28;20177;-59
2022/02/08 10:45:37;;;;;;;13.60;3.40;;;;;;;9.36;100.00;99240.09;5007223;28;20044;-61
2022/02/08 10:48:04;;;;;;;14.52;3.90;;;;;;;7.55;100.00;99230.19;5009172;28;20049;-61
2022/02/08 10:50:32;;;;;;;13.73;3.55;;;;;;;8.12;100.00;99233.06;5008601;28;20038;-59
2022/02/08 10:53:00;;;;;;;14.60;3.85;;;;;;;8.08;100.00;99234.84;5007708;28;21091;-61
2022/02/08 10:55:41;;;;;;;14.52;4.22;;;;;;;8.21;100.00;99237.31;5007465;28;20033;-61
2022/02/08 11:01:03;;;;;;;13.18;3.70;;;;;;;7.62;100.00;99231.88;5008311;28;20044;-58
2022/02/08 11:06:36;;;;;;;10.52;2.97;;;;;;;8.20;100.00;99233.84;5008363;28;20087;-60
2022/02/08 11:17:04;;;;;;;13.30;3.40;;;;;;;8.28;100.00;99225.97;5007931;28;20137;-59
2022/02/08 11:25:17;;;;;;;12.13;3.13;;;;;;;8.70;100.00;99225.47;5008743;28;20029;-61
2022/02/08 11:27:49;;;;;;;10.73;3.42;;;;;;;9.60;100.00;99231.88;5007719;28;20088;-60
2022/02/08 11:30:51;;;;;;;11.13;3.28;;;;;;;9.44;100.00;99240.81;5008275;28;20033;-60
2022/02/08 11:39:10;;;;;;;9.75;2.78;;;;;;;9.53;100.00;99234.59;5015815;28;20037;-61
2022/02/08 12:00:17;;;;;;;12.30;3.75;;;;;;;8.05;100.00;99231.41;5006779;28;20038;-60
2022/02/08 12:03:16;;;;;;;14.93;3.95;;;;;;;9.21;100.00;99241.22;5008078;28;20052;-57
2022/02/08 12:06:06;;;;;;;10.40;4.10;;;;;;;8.43;100.00;99230.16;5007104;28;20056;-59
2022/02/08 12:08:30;;;;;;;18.00;3.88;;;;;;;8.44;100.00;99234.47;5005962;28;20072;-58
2022/02/08 12:11:16;;;;;;;15.45;3.75;;;;;;;8.39;100.00;99225.84;5005653;28;20040;-58
2022/02/08 12:27:01;;;;;;;16.85;4.15;;;;;;;8.08;100.00;99221.84;5005852;28;20083;-58
2022/02/08 12:55:14;;;;;;;17.15;4.40;;;;;;;8.44;100.00;99213.69;5011402;28;20840;-62
2022/02/08 12:57:50;;;;;;;16.52;3.65;;;;;;;8.51;100.00;99204.91;5010690;28;20084;-60
2022/02/08 13:32:24;;;;;;;11.32;3.22;;;;;;;9.38;100.00;99194.91;5011585;28;20033;-59
2022/02/08 14:04:02;;;;;;;8.88;2.60;;;;;;;10.26;100.00;99163.75;5011253;28;20101;-59
2022/02/08 14:17:30;;;;;;;8.57;2.70;;;;;;;10.99;100.00;99166.44;5008475;28;20047;-60
2022/02/08 14:25:32;;;;;;;7.78;2.83;;;;;;;9.99;100.00;99171.22;5008499;28;20079;-60
2022/02/08 14:30:56;;;;;;;7.55;3.00;;;;;;;10.16;100.00;99163.03;5009991;28;20364;-61
2022/02/08 15:10:25;;;;;;;7.00;2.42;;;;;;;10.00;100.00;99167.75;5007258;28;20026;-60
2022/02/08 15:12:55;;;;;;;10.35;3.00;;;;;;;8.82;100.00;99173.25;5009215;28;20084;-61
2022/02/08 15:15:39;;;;;;;7.13;2.85;;;;;;;11.04;100.00;99159.34;5006492;28;20051;-60
2022/02/08 15:18:05;;;;;;;9.25;3.10;;;;;;;9.30;100.00;99160.34;5007640;28;20033;-61
2022/02/08 15:20:30;;;;;;;8.23;2.88;;;;;;;9.99;100.00;99166.00;5007677;28;20046;-60
2022/02/08 15:22:59;;;;;;;7.93;2.88;;;;;;;9.84;100.00;99172.38;5008804;28;20030;-62
2022/02/08 15:25:27;;;;;;;9.95;2.92;;;;;;;9.64;100.00;99171.00;5008870;28;20112;-61
2022/02/08 15:27:53;;;;;;;9.20;2.55;;;;;;;10.85;100.00;99174.63;5007063;28;20863;-61
2022/02/08 15:30:18;;;;;;;7.43;2.67;;;;;;;11.08;100.00;99181.91;5007986;28;20852;-62
2022/02/08 15:32:44;;;;;;;7.97;2.78;;;;;;;10.16;100.00;99174.34;5010202;28;20026;-62
2022/02/08 15:35:10;;;;;;;11.15;3.50;;;;;;;9.34;100.00;99182.84;5006462;28;20688;-62
2022/02/08 15:37:36;;;;;;;10.35;3.42;;;;;;;8.87;100.00;99177.50;5006129;28;20040;-62
2022/02/08 15:40:06;;;;;;;11.60;3.58;;;;;;;9.99;100.00;99184.25;5007449;28;20379;-60
2022/02/08 15:42:32;;;;;;;10.15;3.50;;;;;;;9.93;100.00;99177.41;5008285;28;20060;-61
2022/02/08 15:45:09;;;;;;;12.25;3.63;;;;;;;9.77;100.00;99181.19;5007158;28;20462;-62
2022/02/08 15:47:34;;;;;;;9.75;3.50;;;;;;;9.59;100.00;99182.38;5007484;28;20491;-61
2022/02/08 15:50:08;;;;;;;8.13;3.50;;;;;;;9.52;100.00;99191.19;4992687;28;20125;-60
2022/02/08 16:08:51;;;;;;;7.75;2.92;;;;;;;11.29;100.00;99185.75;4981597;28;20129;-62
2022/02/08 16:24:58;;;;;;;8.52;3.50;;;;;;;9.33;100.00;99196.72;4939695;28;20761;-61
2022/02/08 16:46:58;;;;;;;10.77;4.03;;;;;;;9.22;100.00;99203.84;5006787;28;20092;-58
2022/02/08 16:59:30;;;;;;;12.00;3.88;;;;;;;8.77;100.00;99206.28;5008145;28;20030;-61
2022/02/08 17:02:01;;;;;;;;;;;;;;;9.27;100.00;99213.31;5006487;28;20119;-59
2022/02/08 17:04:27;;;;;;;12.50;3.83;;;;;;;9.21;100.00;99215.19;5006628;28;20036;-60
2022/02/08 17:06:52;;;;;;;10.80;3.80;;;;;;;9.30;100.00;99214.16;5007274;28;20136;-59
2022/02/08 17:09:27;;;;;;;11.90;4.43;;;;;;;8.71;100.00;99211.56;5011296;28;20021;-60
2022/02/08 17:12:12;;;;;;;12.88;4.70;;;;;;;8.95;100.00;99206.03;5009133;28;20107;-59
2022/02/08 17:47:31;;;;;;;13.82;5.65;;;;;;;10.16;100.00;99226.50;5011496;28;20052;-57
2022/02/08 17:49:57;;;;;;;12.43;4.65;;;;;;;9.13;100.00;99219.63;5010416;28;20057;-58
2022/02/08 17:52:23;;;;;;;16.52;5.82;;;;;;;9.52;100.00;99232.88;5009922;28;20435;-60
2022/02/08 17:54:48;;;;;;;13.65;5.82;;;;;;;9.34;100.00;99234.91;5009240;28;20467;-59
2022/02/08 17:57:13;;;;;;;15.15;6.57;;;;;;;8.96;100.00;99236.34;5010018;28;20596;-59
2022/02/08 17:59:39;;;;;;;22.08;9.18;;;;;;;10.20;100.00;99238.59;5012650;28;20035;-61
2022/02/08 18:02:06;;;;;;;19.88;7.38;;;;;;;9.66;100.00;99246.53;5009213;28;20124;-61
2022/02/08 18:04:31;;;;;;;14.13;5.75;;;;;;;9.41;100.00;99246.94;5010718;28;20047;-60
2022/02/08 18:06:58;;;;;;;11.98;4.82;;;;;;;9.32;100.00;99239.28;5009906;28;20046;-62
2022/02/08 18:09:26;;;;;;;10.65;4.78;;;;;;;8.85;100.00;99241.72;5009940;28;20018;-62
2022/02/08 18:11:52;;;;;;;10.27;4.38;;;;;;;9.16;100.00;99248.22;5009327;28;20216;-59
2022/02/08 18:14:20;;;;;;;10.70;3.88;;;;;;;9.32;100.00;99247.09;5018146;28;20790;-59
2022/02/08 18:16:52;;;;;;;13.93;5.15;;;;;;;9.20;100.00;99248.13;5013865;28;20052;-60
2022/02/08 18:19:21;;;;;;;13.30;5.18;;;;;;;9.47;100.00;99250.34;5008386;28;20030;-59
2022/02/08 18:21:55;;;;;;;10.27;4.60;;;;;;;8.98;100.00;99249.34;5008960;28;20042;-60
2022/02/08 18:25:25;;;;;;;12.75;4.85;;;;;;;8.97;100.00;99248.50;5010489;28;20021;-60
2022/02/08 19:07:42;;;;;;;14.30;5.35;;;;;;;9.25;100.00;99266.31;5007775;28;20617;-57
2022/02/08 19:13:53;;;;;;;11.60;4.28;;;;;;;8.88;100.00;99266.84;4968465;28;20073;-60
2022/02/08 19:20:55;;;;;;;11.40;4.88;;;;;;;8.85;100.00;99269.47;5008450;28;20133;-61
2022/02/08 19:23:21;;;;;;;14.07;5.85;;;;;;;9.12;100.00;99275.19;5017194;28;20036;-61
2022/02/08 19:25:47;;;;;;;14.90;5.72;;;;;;;9.12;100.00;99275.19;5007446;28;20042;-64
2022/02/08 19:28:12;;;;;;;14.38;5.80;;;;;;;8.88;100.00;99266.84;5009914;28;20033;-57
2022/02/08 19:30:37;;;;;;;11.43;5.70;;;;;;;8.89;100.00;99268.53;5006948;28;20046;-60